createdAt,value
2022-10-17T00:01:38.276Z,87.32
2022-10-17T00:11:44.291Z,87.46
2022-10-17T00:21:51.635Z,87.39
2022-10-17T00:31:58.582Z,87.45
2022-10-17T00:42:04.362Z,87.34
2022-10-17T00:52:14.777Z,86.98
2022-10-17T01:02:22.689Z,86.96
2022-10-17T01:12:38.154Z,87.58
2022-10-17T01:22:50.824Z,87.58
2022-10-17T01:33:00.242Z,87.78
2022-10-17T01:43:10.064Z,87.86
2022-10-17T01:53:21.024Z,88.17
2022-10-17T02:03:28.849Z,88.66
2022-10-17T02:13:50.244Z,88.90
2022-10-17T02:24:01.985Z,88.64
2022-10-17T02:34:14.008Z,88.85
2022-10-17T02:44:21.533Z,89.15
2022-10-17T02:54:37.313Z,88.54
2022-10-17T03:04:45.820Z,88.51
2022-10-17T03:14:51.497Z,89.30
2022-10-17T03:24:57.282Z,90.14
2022-10-17T03:35:03.350Z,89.90
2022-10-17T03:45:10.819Z,90.52
2022-10-17T03:55:16.956Z,90.85
2022-10-17T04:05:22.790Z,90.95
2022-10-17T04:15:28.425Z,90.08
2022-10-17T04:25:36.648Z,88.96
2022-10-17T04:35:42.981Z,89.10
2022-10-17T04:45:48.722Z,89.97
2022-10-17T04:55:54.537Z,89.87
2022-10-17T05:06:00.333Z,91.59
2022-10-17T05:16:06.433Z,91.34
2022-10-17T05:26:12.273Z,91.21
2022-10-17T05:36:18.154Z,90.87
2022-10-17T05:46:24.860Z,90.69
2022-10-17T05:56:30.534Z,90.68
2022-10-17T06:06:37.302Z,90.01
2022-10-17T06:16:43.756Z,88.41
2022-10-17T06:26:49.972Z,84.95
2022-10-17T06:47:03.026Z,76.89
2022-10-17T06:57:08.771Z,70.40
2022-10-17T07:07:14.477Z,64.85
2022-10-17T07:17:20.411Z,61.10
2022-10-17T07:27:26.254Z,57.03
2022-10-17T07:37:32.639Z,52.02
2022-10-17T07:47:38.624Z,47.91
2022-10-17T07:57:44.316Z,45.01
2022-10-17T08:07:50.186Z,43.82
2022-10-17T08:17:56.129Z,41.94
2022-10-17T08:28:02.058Z,40.27
2022-10-17T08:38:09.992Z,38.25
2022-10-17T08:48:19.998Z,36.39
2022-10-17T08:58:29.012Z,34.82
2022-10-17T09:08:44.767Z,33.38
2022-10-17T09:19:00.894Z,34.28
2022-10-17T09:29:16.611Z,36.99
2022-10-17T09:39:26.243Z,39.20
2022-10-17T09:49:35.657Z,41.45
2022-10-17T09:59:43.714Z,43.36
2022-10-17T10:09:50.780Z,45.10
2022-10-17T10:19:56.880Z,46.49
2022-10-17T10:30:03.646Z,47.61
2022-10-17T10:40:20.124Z,48.69
2022-10-17T10:50:32.573Z,49.82
2022-10-17T11:00:40.905Z,50.40
2022-10-17T11:10:54.319Z,50.97
2022-10-17T11:21:07.115Z,51.29
2022-10-17T11:31:16.852Z,51.12
2022-10-17T11:41:30.876Z,51.66
2022-10-17T11:52:01.703Z,51.84
2022-10-17T12:02:15.277Z,52.43
2022-10-17T12:12:29.602Z,52.81
2022-10-17T12:22:36.193Z,53.07
2022-10-17T12:33:05.539Z,53.30
2022-10-17T12:53:54.984Z,53.05
2022-10-17T13:04:06.568Z,53.02
2022-10-17T13:14:16.521Z,53.15
2022-10-17T13:24:32.000Z,53.49
2022-10-17T13:34:37.755Z,53.54
2022-10-17T13:44:43.607Z,53.61
2022-10-17T13:54:51.755Z,53.46
2022-10-17T14:05:22.947Z,53.82
2022-10-17T14:15:31.453Z,54.42
2022-10-17T14:25:38.666Z,55.07
2022-10-17T14:35:52.558Z,56.11
2022-10-17T14:46:00.117Z,56.45
2022-10-17T14:56:22.130Z,56.65
2022-10-17T15:06:31.594Z,56.80
2022-10-17T15:16:39.486Z,57.08
2022-10-17T15:26:43.724Z,57.77
2022-10-17T15:36:54.017Z,58.59
2022-10-17T15:46:59.690Z,59.50
2022-10-17T15:57:05.420Z,60.54
2022-10-17T16:07:11.634Z,61.25
2022-10-17T16:17:18.676Z,62.20
2022-10-17T16:27:24.455Z,63.12
2022-10-17T16:37:31.021Z,63.94
2022-10-17T16:47:37.002Z,64.80
2022-10-17T17:07:50.854Z,65.98
2022-10-17T17:17:57.248Z,66.63
2022-10-17T17:28:04.772Z,66.96
2022-10-17T17:38:10.395Z,67.57
2022-10-17T17:48:16.264Z,68.05
2022-10-17T17:58:22.021Z,68.10
2022-10-17T18:08:27.841Z,68.12
2022-10-17T18:18:33.732Z,67.97
2022-10-17T18:38:48.477Z,67.50
2022-10-17T18:48:54.394Z,67.47
2022-10-17T18:59:00.084Z,67.71
2022-10-17T19:09:08.431Z,67.84
2022-10-17T19:19:16.824Z,67.91
2022-10-17T19:29:25.367Z,68.23
2022-10-17T19:39:31.297Z,68.19
2022-10-17T19:49:37.019Z,67.99
2022-10-17T19:59:43.123Z,67.89
2022-10-17T20:09:48.921Z,67.73
2022-10-17T20:19:55.042Z,67.52
2022-10-17T20:30:02.041Z,67.32
2022-10-17T20:40:34.274Z,67.41
2022-10-17T20:50:38.464Z,67.46
2022-10-17T21:00:44.796Z,67.45
2022-10-17T21:10:50.483Z,67.59
2022-10-17T21:20:56.290Z,67.80
2022-10-17T21:31:15.097Z,67.80
2022-10-17T21:41:22.439Z,67.81
2022-10-17T21:51:28.497Z,67.60
2022-10-17T22:01:36.162Z,67.36
2022-10-17T22:11:42.301Z,67.31
2022-10-17T22:21:48.416Z,67.19
2022-10-17T22:31:54.151Z,67.24
2022-10-17T22:41:59.992Z,67.42
2022-10-17T22:52:06.234Z,67.82
2022-10-17T23:02:11.853Z,68.06
2022-10-17T23:12:17.833Z,68.59
2022-10-17T23:22:23.662Z,69.06
2022-10-17T23:32:29.860Z,69.33
2022-10-17T23:42:35.966Z,69.69
2022-10-17T23:52:41.869Z,70.07
